Time;durP1;ratioP1;P1;durP2;ratioP2;P2;SDS_P1;SDS_P2;PMS_P1;PMS_P2;Temp;Humidity;BMP_temperature;BMP_pressure;BME280_temperature;BME280_humidity;BME280_pressure;Samples;Min_cycle;Max_cycle;Signal;HPM_P1;HPM_P2
2023/04/04 00:00:02;;;;;;;1.70;0.97;;;;;;;;;;5074458;28;20028;-59
2023/04/04 00:02:28;;;;;;;1.50;1.07;;;;;;;;;;5074929;28;20020;-61
2023/04/04 00:04:53;;;;;;;3.00;1.60;;;;;;;;;;5074272;28;20457;-58
2023/04/04 00:07:20;;;;;;;3.30;1.80;;;;;;;;;;5074773;28;20339;-57
2023/04/04 00:09:46;;;;;;;2.07;0.70;;;;;;;;;;5074750;28;20044;-59
2023/04/04 00:12:12;;;;;;;2.80;1.43;;;;;;;;;;5074361;28;20458;-58
2023/04/04 00:14:38;;;;;;;1.23;0.73;;;;;;;;;;5074857;28;20056;-58
2023/04/04 00:17:04;;;;;;;3.50;2.27;;;;;;;;;;5074992;28;20032;-56
2023/04/04 00:19:30;;;;;;;2.50;2.10;;;;;;;;;;5074912;28;20356;-58
2023/04/04 00:21:56;;;;;;;1.90;1.00;;;;;;;;;;5074103;28;20078;-59
2023/04/04 00:24:22;;;;;;;0.70;0.50;;;;;;;;;;5074168;28;20417;-58
2023/04/04 00:26:48;;;;;;;1.57;1.47;;;;;;;;;;5073876;28;20028;-59
2023/04/04 00:29:14;;;;;;;2.97;1.63;;;;;;;;;;5074448;28;20032;-59
2023/04/04 00:31:40;;;;;;;3.70;1.33;;;;;;;;;;5074015;28;20028;-59
2023/04/04 00:34:06;;;;;;;7.37;2.10;;;;;;;;;;5074265;28;20504;-59
2023/04/04 00:36:32;;;;;;;4.83;1.43;;;;;;;;;;5073930;28;20032;-60
2023/04/04 00:38:58;;;;;;;1.70;1.20;;;;;;;;;;5074265;28;20098;-58
2023/04/04 00:41:24;;;;;;;2.40;1.67;;;;;;;;;;5074145;28;20066;-59
2023/04/04 00:43:50;;;;;;;3.10;1.33;;;;;;;;;;5073888;28;20413;-59
2023/04/04 00:46:17;;;;;;;1.97;1.20;;;;;;;;;;5074394;28;20028;-59
2023/04/04 00:48:44;;;;;;;6.60;1.50;;;;;;;;;;5073673;28;20113;-59
2023/04/04 00:51:10;;;;;;;2.67;1.70;;;;;;;;;;5073733;28;20038;-59
2023/04/04 00:53:37;;;;;;;3.57;1.63;;;;;;;;;;5073736;28;20046;-58
2023/04/04 00:56:03;;;;;;;3.23;0.93;;;;;;;;;;5073724;28;20028;-59
2023/04/04 00:58:29;;;;;;;2.90;2.10;;;;;;;;;;5073727;28;20033;-59
2023/04/04 01:00:55;;;;;;;3.20;1.30;;;;;;;;;;5073594;28;20017;-58
2023/04/04 01:03:22;;;;;;;3.87;1.47;;;;;;;;;;5073939;28;20386;-58
2023/04/04 01:05:48;;;;;;;1.43;1.00;;;;;;;;;;5073690;28;20064;-59
2023/04/04 01:08:16;;;;;;;2.50;1.70;;;;;;;;;;5073494;28;20029;-59
2023/04/04 01:10:42;;;;;;;2.23;1.20;;;;;;;;;;5073309;28;20120;-59
2023/04/04 01:13:08;;;;;;;1.50;1.13;;;;;;;;;;5073698;28;20056;-59
2023/04/04 01:15:34;;;;;;;7.73;1.77;;;;;;;;;;5074169;28;20071;-57
2023/04/04 01:18:01;;;;;;;3.33;1.43;;;;;;;;;;5073822;28;20024;-57
2023/04/04 01:20:30;;;;;;;2.03;1.43;;;;;;;;;;5073741;28;20032;-57
2023/04/04 01:22:56;;;;;;;2.90;1.30;;;;;;;;;;5074018;28;20025;-59
2023/04/04 01:25:33;;;;;;;3.57;1.30;;;;;;;;;;5074126;28;20132;-59
2023/04/04 01:27:59;;;;;;;5.27;1.60;;;;;;;;;;5073816;28;20024;-60
2023/04/04 01:30:28;;;;;;;3.07;1.60;;;;;;;;;;5073380;28;20036;-60
2023/04/04 01:32:57;;;;;;;2.80;1.17;;;;;;;;;;5073784;28;20028;-59
2023/04/04 01:35:41;;;;;;;2.03;1.83;;;;;;;;;;5073795;28;20029;-60
2023/04/04 01:38:13;;;;;;;2.67;1.40;;;;;;;;;;5073757;28;20029;-59
2023/04/04 01:40:40;;;;;;;5.33;2.30;;;;;;;;;;5073942;28;20455;-58
2023/04/04 01:43:06;;;;;;;3.23;2.20;;;;;;;;;;5073699;28;20485;-60
2023/04/04 01:45:32;;;;;;;1.97;1.43;;;;;;;;;;5073991;28;20036;-60
2023/04/04 01:47:58;;;;;;;3.37;1.47;;;;;;;;;;5073652;28;20081;-59
2023/04/04 01:50:25;;;;;;;2.30;1.73;;;;;;;;;;5073726;28;20028;-60
2023/04/04 01:52:51;;;;;;;1.37;1.20;;;;;;;;;;5073287;28;20081;-60
2023/04/04 01:55:17;;;;;;;2.60;1.30;;;;;;;;;;5073719;28;20027;-60
2023/04/04 01:57:43;;;;;;;1.30;0.80;;;;;;;;;;5073865;28;20027;-60
2023/04/04 02:00:10;;;;;;;1.97;1.53;;;;;;;;;;5073287;28;20037;-60
2023/04/04 02:02:36;;;;;;;3.53;1.57;;;;;;;;;;5072533;28;20028;-60
2023/04/04 02:05:03;;;;;;;1.83;1.13;;;;;;;;;;5073139;28;20036;-59
2023/04/04 02:07:29;;;;;;;1.67;1.30;;;;;;;;;;5073650;28;20020;-59
2023/04/04 02:09:55;;;;;;;9.20;1.63;;;;;;;;;;5073054;28;20031;-59
2023/04/04 02:12:21;;;;;;;2.97;1.87;;;;;;;;;;5072819;28;20029;-58
2023/04/04 02:14:47;;;;;;;9.00;1.17;;;;;;;;;;5073169;28;20401;-57
2023/04/04 02:17:13;;;;;;;2.20;1.77;;;;;;;;;;5072985;28;20082;-57
2023/04/04 02:19:39;;;;;;;1.30;1.20;;;;;;;;;;5074768;28;20025;-57
2023/04/04 02:22:05;;;;;;;0.77;0.50;;;;;;;;;;5077142;28;20135;-57
2023/04/04 02:24:31;;;;;;;0.70;0.43;;;;;;;;;;5076546;28;20108;-56
2023/04/04 02:26:57;;;;;;;1.87;1.23;;;;;;;;;;5076502;28;20066;-57
2023/04/04 02:29:23;;;;;;;2.87;2.17;;;;;;;;;;5076952;28;20036;-57
2023/04/04 02:31:49;;;;;;;1.73;1.53;;;;;;;;;;5076420;28;20115;-59
2023/04/04 02:34:15;;;;;;;1.43;0.97;;;;;;;;;;5076436;28;20382;-60
2023/04/04 02:36:41;;;;;;;1.60;1.23;;;;;;;;;;5076237;28;20017;-57
2023/04/04 02:39:07;;;;;;;2.10;1.30;;;;;;;;;;5076584;28;20031;-57
2023/04/04 02:41:33;;;;;;;1.33;0.80;;;;;;;;;;5076782;28;20035;-57
2023/04/04 02:43:59;;;;;;;4.63;1.63;;;;;;;;;;5075972;28;20394;-58
2023/04/04 02:46:25;;;;;;;1.70;1.20;;;;;;;;;;5076521;28;20500;-59
2023/04/04 02:48:51;;;;;;;1.30;1.07;;;;;;;;;;5076691;28;20363;-58
2023/04/04 02:51:17;;;;;;;2.73;1.40;;;;;;;;;;5076069;28;20477;-59
2023/04/04 02:53:43;;;;;;;3.50;0.73;;;;;;;;;;5076275;28;20033;-60
2023/04/04 02:56:09;;;;;;;2.10;1.40;;;;;;;;;;5076331;28;20451;-58
2023/04/04 02:58:35;;;;;;;1.97;1.03;;;;;;;;;;5075980;28;20047;-57
2023/04/04 03:01:01;;;;;;;3.80;1.47;;;;;;;;;;5075656;28;20112;-57
2023/04/04 03:03:27;;;;;;;1.67;1.17;;;;;;;;;;5076215;28;20020;-59
2023/04/04 03:05:53;;;;;;;2.83;1.50;;;;;;;;;;5076162;28;20025;-60
2023/04/04 03:08:19;;;;;;;1.53;1.30;;;;;;;;;;5076027;28;20459;-59
2023/04/04 03:10:46;;;;;;;3.70;1.90;;;;;;;;;;5075734;28;20036;-59
2023/04/04 03:13:12;;;;;;;2.03;1.37;;;;;;;;;;5075634;28;20033;-58
2023/04/04 03:15:39;;;;;;;1.27;1.00;;;;;;;;;;5075633;28;20402;-58
2023/04/04 03:18:05;;;;;;;1.13;0.83;;;;;;;;;;5075486;28;20036;-58
2023/04/04 03:20:31;;;;;;;2.07;1.30;;;;;;;;;;5075969;28;20378;-57
2023/04/04 03:22:57;;;;;;;1.77;1.43;;;;;;;;;;5075375;28;20078;-58
2023/04/04 03:25:23;;;;;;;2.63;1.80;;;;;;;;;;5075478;28;20420;-58
2023/04/04 03:27:49;;;;;;;1.10;0.67;;;;;;;;;;5075363;28;20377;-58
2023/04/04 03:30:15;;;;;;;1.07;0.87;;;;;;;;;;5075168;28;20028;-57
2023/04/04 03:32:41;;;;;;;8.07;2.03;;;;;;;;;;5075131;28;20036;-58
2023/04/04 03:35:07;;;;;;;2.87;2.00;;;;;;;;;;5075755;28;20055;-57
2023/04/04 03:37:34;;;;;;;3.60;2.07;;;;;;;;;;5075149;28;20021;-57
2023/04/04 03:40:00;;;;;;;2.40;0.83;;;;;;;;;;5075119;28;20463;-57
2023/04/04 03:42:26;;;;;;;3.63;1.73;;;;;;;;;;5075088;28;20505;-58
2023/04/04 03:44:52;;;;;;;2.53;1.90;;;;;;;;;;5075087;28;20020;-57
2023/04/04 03:47:19;;;;;;;1.73;1.33;;;;;;;;;;5075120;28;20021;-56
2023/04/04 03:49:45;;;;;;;3.83;2.17;;;;;;;;;;5075391;28;20033;-57
2023/04/04 03:52:11;;;;;;;3.27;2.47;;;;;;;;;;5075468;28;20050;-58
2023/04/04 03:54:38;;;;;;;3.40;2.07;;;;;;;;;;5074856;28;20028;-56
2023/04/04 03:57:04;;;;;;;2.03;1.33;;;;;;;;;;5075420;28;20048;-57
2023/04/04 03:59:30;;;;;;;2.57;1.67;;;;;;;;;;5074762;28;20033;-58
2023/04/04 04:01:56;;;;;;;3.67;2.40;;;;;;;;;;5075513;28;20032;-58
2023/04/04 04:04:22;;;;;;;2.37;1.27;;;;;;;;;;5075223;28;20028;-57
2023/04/04 04:06:48;;;;;;;2.33;1.30;;;;;;;;;;5075532;28;20024;-58
2023/04/04 04:09:14;;;;;;;2.07;1.00;;;;;;;;;;5074568;28;20401;-57
2023/04/04 04:11:40;;;;;;;2.57;0.87;;;;;;;;;;5074147;28;20028;-57
2023/04/04 04:14:06;;;;;;;1.63;0.93;;;;;;;;;;5074481;28;20071;-57
2023/04/04 04:16:32;;;;;;;2.37;1.37;;;;;;;;;;5074441;28;20078;-56
2023/04/04 04:18:58;;;;;;;5.03;2.43;;;;;;;;;;5074299;28;20029;-56
2023/04/04 04:21:27;;;;;;;2.40;1.77;;;;;;;;;;5074410;28;20031;-58
2023/04/04 04:23:53;;;;;;;1.70;1.00;;;;;;;;;;5074217;28;20020;-55
2023/04/04 04:26:20;;;;;;;2.83;1.40;;;;;;;;;;5074591;28;20028;-57
2023/04/04 04:28:47;;;;;;;2.20;1.37;;;;;;;;;;5074044;28;20032;-58
2023/04/04 04:31:13;;;;;;;2.23;1.63;;;;;;;;;;5074128;28;20032;-58
2023/04/04 04:33:38;;;;;;;1.20;1.10;;;;;;;;;;5074202;28;20028;-58
2023/04/04 04:36:05;;;;;;;2.27;0.77;;;;;;;;;;5074328;28;20470;-58
2023/04/04 04:38:32;;;;;;;1.93;1.67;;;;;;;;;;5074020;28;20367;-58
2023/04/04 04:40:58;;;;;;;1.33;0.97;;;;;;;;;;5073992;28;20020;-58
2023/04/04 04:43:25;;;;;;;3.00;1.87;;;;;;;;;;5073669;28;20024;-58
2023/04/04 04:45:50;;;;;;;3.87;2.03;;;;;;;;;;5074566;28;20033;-58
2023/04/04 04:48:17;;;;;;;2.60;1.90;;;;;;;;;;5074166;28;20481;-58
2023/04/04 04:50:46;;;;;;;3.20;1.77;;;;;;;;;;5074004;28;20431;-56
2023/04/04 04:53:15;;;;;;;2.40;1.17;;;;;;;;;;5073890;28;20375;-58
2023/04/04 04:55:45;;;;;;;3.07;1.87;;;;;;;;;;5074242;28;20024;-57
2023/04/04 04:58:11;;;;;;;3.42;2.97;;;;;;;;;;5074370;28;20039;-57
2023/04/04 05:00:37;;;;;;;5.57;2.00;;;;;;;;;;5073812;28;20082;-57
2023/04/04 05:03:07;;;;;;;2.10;1.47;;;;;;;;;;5073549;28;20429;-58
2023/04/04 05:05:33;;;;;;;2.93;2.57;;;;;;;;;;5074386;28;20540;-58
2023/04/04 05:08:02;;;;;;;2.03;1.23;;;;;;;;;;5073740;28;20383;-58
2023/04/04 05:10:29;;;;;;;2.03;1.67;;;;;;;;;;5073679;28;20478;-51
2023/04/04 05:12:55;;;;;;;3.73;2.33;;;;;;;;;;5073619;28;20025;-51
2023/04/04 05:15:21;;;;;;;1.93;1.70;;;;;;;;;;5074160;28;20041;-51
2023/04/04 05:17:47;;;;;;;4.40;2.20;;;;;;;;;;5073582;28;20025;-56
2023/04/04 05:20:13;;;;;;;2.87;2.20;;;;;;;;;;5074074;28;20032;-54
2023/04/04 05:22:43;;;;;;;1.60;1.10;;;;;;;;;;5072362;28;20059;-49
2023/04/04 05:25:09;;;;;;;1.77;1.33;;;;;;;;;;5073556;28;20029;-53
2023/04/04 05:27:35;;;;;;;2.63;1.90;;;;;;;;;;5074030;28;20275;-51
2023/04/04 05:30:01;;;;;;;2.60;1.40;;;;;;;;;;5073503;28;20039;-51
2023/04/04 05:32:27;;;;;;;2.97;1.70;;;;;;;;;;5073810;28;20035;-53
2023/04/04 05:34:53;;;;;;;0.77;0.63;;;;;;;;;;5073757;28;20025;-54
2023/04/04 05:37:19;;;;;;;1.63;1.50;;;;;;;;;;5073537;28;20059;-53
2023/04/04 05:39:45;;;;;;;3.47;1.30;;;;;;;;;;5073114;28;20028;-54
2023/04/04 05:42:11;;;;;;;1.53;1.10;;;;;;;;;;5073598;28;20166;-51
2023/04/04 05:44:37;;;;;;;2.40;1.60;;;;;;;;;;5073967;28;20113;-52
2023/04/04 05:47:03;;;;;;;2.60;1.87;;;;;;;;;;5073470;28;20056;-52
2023/04/04 05:49:29;;;;;;;3.20;1.00;;;;;;;;;;5074006;28;20039;-52
2023/04/04 05:51:55;;;;;;;1.90;1.20;;;;;;;;;;5073800;28;20450;-52
2023/04/04 05:54:21;;;;;;;2.07;1.40;;;;;;;;;;5074291;28;20362;-49
2023/04/04 05:56:47;;;;;;;2.72;1.42;;;;;;;;;;5077112;28;20451;-54
2023/04/04 05:59:13;;;;;;;2.55;1.48;;;;;;;;;;5077271;28;20090;-56
2023/04/04 06:01:39;;;;;;;1.83;1.33;;;;;;;;;;5076956;28;20526;-57
2023/04/04 06:04:06;;;;;;;3.38;1.83;;;;;;;;;;5076961;28;20021;-53
2023/04/04 06:06:35;;;;;;;3.25;2.10;;;;;;;;;;5077311;28;20033;-53
2023/04/04 06:09:01;;;;;;;2.47;1.35;;;;;;;;;;5077070;28;20036;-55
2023/04/04 06:11:27;;;;;;;2.42;1.27;;;;;;;;;;5076379;28;20040;-51
2023/04/04 06:13:53;;;;;;;3.88;1.17;;;;;;;;;;5076378;28;20049;-54
2023/04/04 06:16:20;;;;;;;2.63;2.00;;;;;;;;;;5076722;28;20403;-57
2023/04/04 06:18:46;;;;;;;2.50;0.95;;;;;;;;;;5077234;28;20025;-53
2023/04/04 06:21:12;;;;;;;1.58;1.10;;;;;;;;;;5076511;28;20432;-50
2023/04/04 06:23:38;;;;;;;2.25;1.38;;;;;;;;;;5076960;28;20028;-54
2023/04/04 06:26:05;;;;;;;4.68;2.45;;;;;;;;;;5076506;28;20096;-51
2023/04/04 06:28:31;;;;;;;2.28;1.75;;;;;;;;;;5076351;28;20347;-52
2023/04/04 06:30:57;;;;;;;2.47;1.33;;;;;;;;;;5076780;28;20070;-54
2023/04/04 06:33:23;;;;;;;3.58;1.73;;;;;;;;;;5076400;28;20039;-51
2023/04/04 06:35:49;;;;;;;2.05;1.38;;;;;;;;;;5076415;28;20028;-51
2023/04/04 06:38:15;;;;;;;3.10;1.52;;;;;;;;;;5076655;28;20458;-50
2023/04/04 06:40:41;;;;;;;2.97;1.52;;;;;;;;;;5076238;28;20381;-53
2023/04/04 06:43:09;;;;;;;1.77;1.13;;;;;;;;;;5076193;28;20027;-55
2023/04/04 06:45:35;;;;;;;5.27;1.33;;;;;;;;;;5076965;28;20025;-53
2023/04/04 06:48:01;;;;;;;5.03;1.20;;;;;;;;;;5076058;28;20043;-53
2023/04/04 06:50:30;;;;;;;1.65;1.27;;;;;;;;;;5076000;28;20436;-57
2023/04/04 06:52:56;;;;;;;2.97;1.87;;;;;;;;;;5076538;28;20035;-55
2023/04/04 06:55:22;;;;;;;8.30;1.57;;;;;;;;;;5076508;28;20498;-53
2023/04/04 06:57:48;;;;;;;2.77;1.33;;;;;;;;;;5075742;28;20062;-56
2023/04/04 07:00:14;;;;;;;1.97;1.00;;;;;;;;;;5075949;28;20032;-53
2023/04/04 07:02:40;;;;;;;2.23;1.60;;;;;;;;;;5075918;28;20029;-52
2023/04/04 07:05:07;;;;;;;1.55;1.33;;;;;;;;;;5076507;28;20028;-54
2023/04/04 07:07:32;;;;;;;2.20;1.60;;;;;;;;;;5075836;28;20506;-54
2023/04/04 07:09:58;;;;;;;3.40;2.05;;;;;;;;;;5075951;28;20108;-54
2023/04/04 07:12:24;;;;;;;1.60;1.25;;;;;;;;;;5076133;28;20090;-52
2023/04/04 07:14:50;;;;;;;3.13;1.50;;;;;;;;;;5075728;28;20075;-56
2023/04/04 07:17:16;;;;;;;1.38;1.15;;;;;;;;;;5076185;28;20336;-56
2023/04/04 07:19:42;;;;;;;2.40;1.27;;;;;;;;;;5075602;28;20424;-56
2023/04/04 07:22:08;;;;;;;1.73;1.05;;;;;;;;;;5075479;28;20024;-53
2023/04/04 07:24:34;;;;;;;2.72;1.33;;;;;;;;;;5075740;28;20070;-53
2023/04/04 07:27:00;;;;;;;1.98;1.25;;;;;;;;;;5075774;28;20025;-53
2023/04/04 07:29:26;;;;;;;2.90;1.38;;;;;;;;;;5075302;28;20040;-54
2023/04/04 07:31:52;;;;;;;2.03;1.33;;;;;;;;;;5075263;28;20028;-54
2023/04/04 07:34:19;;;;;;;12.25;1.50;;;;;;;;;;5075293;28;20029;-52
2023/04/04 07:36:45;;;;;;;1.35;0.90;;;;;;;;;;5075323;28;20112;-55
2023/04/04 07:39:11;;;;;;;2.83;0.98;;;;;;;;;;5075742;28;20071;-54
2023/04/04 07:41:37;;;;;;;1.92;1.70;;;;;;;;;;5074829;28;20415;-51
2023/04/04 07:44:03;;;;;;;1.88;1.40;;;;;;;;;;5075311;28;20108;-57
2023/04/04 07:46:29;;;;;;;2.08;1.40;;;;;;;;;;5075403;28;20059;-51
2023/04/04 07:48:55;;;;;;;3.20;1.83;;;;;;;;;;5075392;28;20025;-52
2023/04/04 07:51:28;;;;;;;1.85;1.08;;;;;;;;;;5075534;28;20055;-53
2023/04/04 07:53:54;;;;;;;5.15;1.45;;;;;;;;;;5074786;28;20116;-55
2023/04/04 07:56:20;;;;;;;2.30;1.65;;;;;;;;;;5075053;28;20063;-52
2023/04/04 07:58:46;;;;;;;1.42;0.82;;;;;;;;;;5075193;28;20362;-54
2023/04/04 08:01:13;;;;;;;2.05;1.40;;;;;;;;;;5074683;28;20100;-56
2023/04/04 08:03:39;;;;;;;1.48;1.23;;;;;;;;;;5075163;28;20021;-54
2023/04/04 08:06:04;;;;;;;6.88;1.77;;;;;;;;;;5074333;28;20032;-55
2023/04/04 08:08:30;;;;;;;1.67;0.93;;;;;;;;;;5074460;28;20060;-54
2023/04/04 08:10:56;;;;;;;8.07;2.00;;;;;;;;;;5074783;28;20112;-56
2023/04/04 08:13:22;;;;;;;2.67;1.80;;;;;;;;;;5074474;28;20027;-55
2023/04/04 08:15:48;;;;;;;2.65;1.45;;;;;;;;;;5074371;28;20094;-57
2023/04/04 08:18:14;;;;;;;3.25;1.27;;;;;;;;;;5073589;28;20025;-56
2023/04/04 08:20:40;;;;;;;3.92;1.60;;;;;;;;;;5074394;28;20036;-57
2023/04/04 08:23:06;;;;;;;2.28;1.70;;;;;;;;;;5074646;28;20029;-55
2023/04/04 08:25:33;;;;;;;2.47;1.73;;;;;;;;;;5074630;28;20369;-54
2023/04/04 08:27:59;;;;;;;2.08;1.27;;;;;;;;;;5074730;28;20033;-57
2023/04/04 08:30:26;;;;;;;2.85;1.45;;;;;;;;;;5074131;28;20064;-56
2023/04/04 08:32:52;;;;;;;1.98;1.35;;;;;;;;;;5074155;28;20025;-55
2023/04/04 08:35:18;;;;;;;3.30;2.05;;;;;;;;;;5073663;28;20025;-57
2023/04/04 08:37:47;;;;;;;2.67;1.55;;;;;;;;;;5073719;28;20454;-55
2023/04/04 08:40:14;;;;;;;2.65;1.90;;;;;;;;;;5074046;28;20078;-57
2023/04/04 08:42:43;;;;;;;3.05;1.38;;;;;;;;;;5074072;28;20035;-57
2023/04/04 08:45:10;;;;;;;3.13;1.45;;;;;;;;;;5074219;28;20016;-57
2023/04/04 08:47:37;;;;;;;2.63;1.52;;;;;;;;;;5073367;28;20033;-57
2023/04/04 08:50:04;;;;;;;3.03;1.17;;;;;;;;;;5073782;28;20396;-56
2023/04/04 08:52:31;;;;;;;1.95;1.25;;;;;;;;;;5073757;28;20364;-57
2023/04/04 08:54:57;;;;;;;2.63;1.55;;;;;;;;;;5074361;28;20119;-58
2023/04/04 08:57:23;;;;;;;2.20;1.65;;;;;;;;;;5073913;28;20027;-56
2023/04/04 08:59:49;;;;;;;3.13;1.80;;;;;;;;;;5073895;28;20033;-57
2023/04/04 09:02:26;;;;;;;5.88;2.58;;;;;;;;;;5073761;28;20020;-57
2023/04/04 09:04:53;;;;;;;3.92;2.28;;;;;;;;;;5074367;28;20036;-56
2023/04/04 09:07:20;;;;;;;1.42;1.08;;;;;;;;;;5074151;28;20048;-56
2023/04/04 09:09:46;;;;;;;2.42;1.95;;;;;;;;;;5074145;28;20036;-57
2023/04/04 09:12:13;;;;;;;5.97;2.15;;;;;;;;;;5072954;28;20035;-57
2023/04/04 09:14:40;;;;;;;4.40;1.58;;;;;;;;;;5073742;28;20131;-57
2023/04/04 09:17:09;;;;;;;2.63;1.58;;;;;;;;;;5073535;28;20028;-56
2023/04/04 09:19:35;;;;;;;4.05;2.10;;;;;;;;;;5074483;28;20029;-56
2023/04/04 09:22:01;;;;;;;3.40;2.17;;;;;;;;;;5073617;28;20025;-58
2023/04/04 09:24:40;;;;;;;1.75;1.13;;;;;;;;;;5072019;28;20451;-57
2023/04/04 09:27:08;;;;;;;4.22;2.13;;;;;;;;;;5073874;28;20029;-57
2023/04/04 09:29:34;;;;;;;3.15;2.10;;;;;;;;;;5075158;28;20028;-58
2023/04/04 09:32:00;;;;;;;3.40;1.52;;;;;;;;;;5077570;28;20025;-55
2023/04/04 09:34:28;;;;;;;3.53;1.73;;;;;;;;;;5077476;28;20028;-57
2023/04/04 09:36:54;;;;;;;2.88;1.38;;;;;;;;;;5077851;28;20029;-58
2023/04/04 09:39:22;;;;;;;5.93;2.08;;;;;;;;;;5077423;28;20516;-57
2023/04/04 09:41:49;;;;;;;3.35;1.52;;;;;;;;;;5077410;28;20036;-56
2023/04/04 09:44:16;;;;;;;3.30;1.77;;;;;;;;;;5077387;28;20032;-58
2023/04/04 09:46:42;;;;;;;2.22;1.55;;;;;;;;;;5077381;28;20043;-53
2023/04/04 09:49:19;;;;;;;4.82;2.05;;;;;;;;;;5077193;28;20119;-55
2023/04/04 09:51:47;;;;;;;3.80;1.58;;;;;;;;;;5077798;28;20028;-58
2023/04/04 09:54:20;;;;;;;6.80;1.92;;;;;;;;;;5077067;28;20069;-57
2023/04/04 09:56:46;;;;;;;5.65;2.08;;;;;;;;;;5077206;28;20029;-55
2023/04/04 09:59:12;;;;;;;2.55;1.02;;;;;;;;;;5077419;28;20039;-57
2023/04/04 10:01:38;;;;;;;2.13;1.67;;;;;;;;;;5077417;28;20046;-58
2023/04/04 10:04:05;;;;;;;2.97;1.77;;;;;;;;;;5077003;28;20075;-58
2023/04/04 10:06:31;;;;;;;2.33;1.35;;;;;;;;;;5077320;28;20332;-58
2023/04/04 10:08:58;;;;;;;3.88;2.47;;;;;;;;;;5077369;28;20364;-57
2023/04/04 10:11:33;;;;;;;2.30;1.95;;;;;;;;;;5076742;28;20086;-58
2023/04/04 10:14:00;;;;;;;1.50;1.00;;;;;;;;;;5076778;28;20052;-58
2023/04/04 10:16:26;;;;;;;3.25;1.83;;;;;;;;;;5077061;28;20072;-57
2023/04/04 10:18:52;;;;;;;1.65;1.20;;;;;;;;;;5076726;28;20074;-57
2023/04/04 10:21:18;;;;;;;2.63;1.33;;;;;;;;;;5077027;28;20040;-57
2023/04/04 10:23:48;;;;;;;4.32;2.80;;;;;;;;;;5077102;28;20358;-56
2023/04/04 10:26:14;;;;;;;2.90;1.65;;;;;;;;;;5076353;28;20359;-58
2023/04/04 10:28:41;;;;;;;3.97;1.88;;;;;;;;;;5076432;28;20025;-56
2023/04/04 10:31:23;;;;;;;2.25;1.40;;;;;;;;;;5077012;28;20056;-57
2023/04/04 10:34:03;;;;;;;4.95;2.05;;;;;;;;;;5076369;28;20124;-55
2023/04/04 10:36:30;;;;;;;2.63;1.98;;;;;;;;;;5076753;28;20020;-58
2023/04/04 10:39:13;;;;;;;5.10;2.30;;;;;;;;;;5076399;28;20039;-58
2023/04/04 10:41:40;;;;;;;3.17;2.25;;;;;;;;;;5076531;28;20024;-56
2023/04/04 10:44:18;;;;;;;1.98;1.77;;;;;;;;;;5076199;28;20021;-57
2023/04/04 10:46:46;;;;;;;2.22;1.33;;;;;;;;;;5076278;28;20055;-57
2023/04/04 10:49:12;;;;;;;2.63;1.55;;;;;;;;;;5076371;28;20028;-59
2023/04/04 10:51:38;;;;;;;4.38;2.55;;;;;;;;;;5076086;28;20029;-53
2023/04/04 10:54:04;;;;;;;3.65;1.42;;;;;;;;;;5076108;28;20016;-56
2023/04/04 10:56:31;;;;;;;2.08;1.38;;;;;;;;;;5076695;28;20020;-56
2023/04/04 10:59:13;;;;;;;2.65;1.92;;;;;;;;;;5076039;28;20021;-58
2023/04/04 11:01:49;;;;;;;3.15;1.58;;;;;;;;;;5075970;28;20017;-54
2023/04/04 11:04:16;;;;;;;3.47;2.30;;;;;;;;;;5076687;28;20017;-56
2023/04/04 11:07:01;;;;;;;1.92;1.17;;;;;;;;;;5074977;28;20115;-57
2023/04/04 11:09:46;;;;;;;3.83;1.60;;;;;;;;;;5075658;28;20034;-58
2023/04/04 11:12:20;;;;;;;3.47;1.73;;;;;;;;;;5075980;28;20572;-56
2023/04/04 11:15:02;;;;;;;3.30;1.65;;;;;;;;;;5075686;28;20127;-58
2023/04/04 11:17:47;;;;;;;2.03;1.23;;;;;;;;;;5076228;28;20365;-59
2023/04/04 11:20:17;;;;;;;3.38;1.90;;;;;;;;;;5075865;28;20105;-59
2023/04/04 11:22:44;;;;;;;1.75;1.25;;;;;;;;;;5075626;28;20029;-59
2023/04/04 11:25:31;;;;;;;2.22;1.20;;;;;;;;;;5075911;28;20155;-59
2023/04/04 11:27:58;;;;;;;4.05;1.40;;;;;;;;;;5075784;28;20031;-59
2023/04/04 11:30:27;;;;;;;2.00;1.40;;;;;;;;;;5076083;28;20035;-58
2023/04/04 11:32:57;;;;;;;2.33;1.63;;;;;;;;;;5073773;28;20028;-59
2023/04/04 11:35:23;;;;;;;4.50;2.03;;;;;;;;;;5075758;28;20111;-58
2023/04/04 11:37:52;;;;;;;2.05;1.27;;;;;;;;;;5075145;28;20028;-59
2023/04/04 11:40:18;;;;;;;1.98;1.05;;;;;;;;;;5075676;28;20074;-59
2023/04/04 11:42:44;;;;;;;2.83;1.45;;;;;;;;;;5075296;28;20066;-59
2023/04/04 11:45:17;;;;;;;1.83;1.35;;;;;;;;;;5075418;28;20038;-57
2023/04/04 11:47:46;;;;;;;3.65;2.00;;;;;;;;;;5075390;28;20029;-59
2023/04/04 11:50:14;;;;;;;2.88;2.05;;;;;;;;;;5074863;28;20115;-59
2023/04/04 11:52:41;;;;;;;4.28;2.33;;;;;;;;;;5074027;28;20082;-58
2023/04/04 11:55:14;;;;;;;3.53;2.13;;;;;;;;;;5074791;28;20033;-59
2023/04/04 11:57:41;;;;;;;7.35;2.47;;;;;;;;;;5074256;28;20040;-58
2023/04/04 12:00:07;;;;;;;2.83;1.88;;;;;;;;;;5073536;28;20028;-57
2023/04/04 12:02:35;;;;;;;2.45;1.70;;;;;;;;;;5074705;28;20023;-56
2023/04/04 12:05:01;;;;;;;2.15;1.52;;;;;;;;;;5074963;28;20032;-59
2023/04/04 12:07:30;;;;;;;2.28;1.40;;;;;;;;;;5075009;28;20117;-58
2023/04/04 12:09:56;;;;;;;3.60;2.00;;;;;;;;;;5074516;28;20029;-59
2023/04/04 12:12:22;;;;;;;2.88;1.90;;;;;;;;;;5074744;28;20027;-59
2023/04/04 12:14:48;;;;;;;2.15;1.30;;;;;;;;;;5074205;28;20052;-59
2023/04/04 12:17:15;;;;;;;2.10;1.52;;;;;;;;;;5074880;28;20103;-60
2023/04/04 12:19:43;;;;;;;1.75;1.38;;;;;;;;;;5074373;28;20051;-59
2023/04/04 12:22:09;;;;;;;5.55;2.80;;;;;;;;;;5074324;28;20032;-59
2023/04/04 12:24:36;;;;;;;1.77;1.08;;;;;;;;;;5074574;28;20028;-59
2023/04/04 12:27:02;;;;;;;5.05;1.92;;;;;;;;;;5074248;28;20032;-60
2023/04/04 12:29:34;;;;;;;5.10;1.85;;;;;;;;;;5074044;28;20038;-61
2023/04/04 12:32:01;;;;;;;2.75;1.77;;;;;;;;;;5075499;28;20105;-55
2023/04/04 12:34:31;;;;;;;1.98;1.30;;;;;;;;;;5074201;28;20035;-57
2023/04/04 12:36:57;;;;;;;3.15;1.90;;;;;;;;;;5074410;28;20028;-57
2023/04/04 12:39:27;;;;;;;2.63;1.30;;;;;;;;;;5074128;28;20064;-58
2023/04/04 12:44:45;;;;;;;2.33;1.85;;;;;;;;;;5074149;28;20031;-56
2023/04/04 12:47:14;;;;;;;3.08;1.63;;;;;;;;;;5074348;28;20387;-56
2023/04/04 12:49:41;;;;;;;2.40;1.45;;;;;;;;;;5073812;28;20036;-55
2023/04/04 12:52:16;;;;;;;3.00;1.70;;;;;;;;;;5074717;28;20492;-57
2023/04/04 12:54:42;;;;;;;2.00;1.58;;;;;;;;;;5074475;28;20351;-56
2023/04/04 12:57:11;;;;;;;3.15;2.47;;;;;;;;;;5074486;28;20336;-56
2023/04/04 12:59:38;;;;;;;2.83;1.55;;;;;;;;;;5074098;28;20032;-56
2023/04/04 13:02:08;;;;;;;2.55;1.70;;;;;;;;;;5074412;28;20115;-56
2023/04/04 13:04:34;;;;;;;2.72;1.45;;;;;;;;;;5073394;28;20033;-55
2023/04/04 13:07:02;;;;;;;2.45;1.42;;;;;;;;;;5074438;28;20035;-55
2023/04/04 13:09:27;;;;;;;2.00;1.80;;;;;;;;;;5073717;28;20020;-57
2023/04/04 13:12:00;;;;;;;3.92;2.38;;;;;;;;;;5073733;28;20086;-57
2023/04/04 13:14:27;;;;;;;3.47;1.85;;;;;;;;;;5073372;28;20109;-58
2023/04/04 13:17:06;;;;;;;3.72;1.75;;;;;;;;;;5073645;28;20028;-55
2023/04/04 13:19:33;;;;;;;2.50;1.80;;;;;;;;;;5073937;28;20127;-57
2023/04/04 13:22:02;;;;;;;1.67;1.23;;;;;;;;;;5073648;28;20037;-55
2023/04/04 13:24:28;;;;;;;3.22;1.77;;;;;;;;;;5073481;28;20024;-57
2023/04/04 13:26:54;;;;;;;2.53;1.60;;;;;;;;;;5073833;28;20508;-52
2023/04/04 13:29:20;;;;;;;3.78;1.83;;;;;;;;;;5073383;28;20066;-55
2023/04/04 13:31:46;;;;;;;2.63;1.58;;;;;;;;;;5073357;28;20355;-57
2023/04/04 13:34:12;;;;;;;3.78;1.40;;;;;;;;;;5074117;28;20035;-57
2023/04/04 13:36:38;;;;;;;3.75;1.70;;;;;;;;;;5074036;28;20467;-56
2023/04/04 13:39:04;;;;;;;3.17;2.08;;;;;;;;;;5073495;28;20375;-57
2023/04/04 13:41:30;;;;;;;3.92;1.85;;;;;;;;;;5073490;28;20146;-55
2023/04/04 13:43:56;;;;;;;3.42;2.33;;;;;;;;;;5073436;28;20029;-53
2023/04/04 13:46:22;;;;;;;3.78;2.35;;;;;;;;;;5073992;28;20104;-56
2023/04/04 13:48:48;;;;;;;2.38;1.63;;;;;;;;;;5073652;28;20162;-57
2023/04/04 13:51:14;;;;;;;3.15;1.88;;;;;;;;;;5073286;28;20037;-56
2023/04/04 13:53:40;;;;;;;2.55;1.58;;;;;;;;;;5073777;28;20060;-57
2023/04/04 13:56:06;;;;;;;3.80;2.15;;;;;;;;;;5073231;28;20117;-55
2023/04/04 13:58:32;;;;;;;7.18;2.35;;;;;;;;;;5072774;28;20411;-57
2023/04/04 14:00:58;;;;;;;5.25;1.73;;;;;;;;;;5073098;28;20107;-54
2023/04/04 14:03:24;;;;;;;2.83;1.65;;;;;;;;;;5073133;28;20028;-57
2023/04/04 14:05:50;;;;;;;3.33;2.38;;;;;;;;;;5073569;28;20070;-57
2023/04/04 14:08:16;;;;;;;3.33;2.20;;;;;;;;;;5073533;28;20086;-55
2023/04/04 14:10:42;;;;;;;3.65;1.77;;;;;;;;;;5073084;28;20033;-56
2023/04/04 14:13:08;;;;;;;2.88;1.65;;;;;;;;;;5073346;28;20481;-56
2023/04/04 14:15:34;;;;;;;3.05;1.90;;;;;;;;;;5074427;28;20382;-56
2023/04/04 14:18:00;;;;;;;3.00;2.10;;;;;;;;;;5076782;28;20386;-58
2023/04/04 14:20:26;;;;;;;4.93;2.08;;;;;;;;;;5076730;28;20036;-57
2023/04/04 14:22:52;;;;;;;4.30;1.75;;;;;;;;;;5076651;28;20028;-56
2023/04/04 14:25:17;;;;;;;6.20;1.88;;;;;;;;;;5077180;28;20020;-56
2023/04/04 14:27:44;;;;;;;4.70;2.25;;;;;;;;;;5076554;28;20028;-56
2023/04/04 14:30:10;;;;;;;2.35;1.33;;;;;;;;;;5076454;28;20402;-57
2023/04/04 14:32:36;;;;;;;3.85;1.60;;;;;;;;;;5076324;28;20028;-56
2023/04/04 14:35:02;;;;;;;2.28;1.60;;;;;;;;;;5076106;28;20028;-54
2023/04/04 14:37:28;;;;;;;5.28;1.77;;;;;;;;;;5076796;28;20027;-56
2023/04/04 14:39:54;;;;;;;3.70;1.90;;;;;;;;;;5076387;28;20067;-55
2023/04/04 14:42:20;;;;;;;2.80;1.65;;;;;;;;;;5076203;28;20078;-58
2023/04/04 14:44:46;;;;;;;3.30;2.13;;;;;;;;;;5076242;28;20413;-58